Time;durP1;ratioP1;P1;durP2;ratioP2;P2;SDS_P1;SDS_P2;PMS_P1;PMS_P2;Temp;Humidity;BMP_temperature;BMP_pressure;BME280_temperature;BME280_humidity;BME280_pressure;Samples;Min_cycle;Max_cycle;Signal;HPM_P1;HPM_P2
2023/11/19 00:02:08;;;;;;;2.43;1.93;;;12.90;99.90;;;;;;5069066;28;20539;-87
2023/11/19 00:04:37;;;;;;;2.47;2.00;;;12.90;99.90;;;;;;5073439;28;20196;-87
2023/11/19 00:07:05;;;;;;;5.43;2.50;;;13.00;99.90;;;;;;5068785;28;20436;-87
2023/11/19 00:09:31;;;;;;;2.47;2.00;;;12.90;99.90;;;;;;5072471;28;20447;-87
2023/11/19 00:11:57;;;;;;;2.00;1.80;;;13.00;99.90;;;;;;5079898;28;20507;-87
2023/11/19 00:14:24;;;;;;;2.30;2.03;;;13.00;99.90;;;;;;5072968;28;20876;-87
2023/11/19 00:16:51;;;;;;;6.40;2.63;;;13.00;99.90;;;;;;5071970;28;21002;-87
2023/11/19 00:19:20;;;;;;;4.50;1.53;;;13.00;99.90;;;;;;5080115;28;21020;-86
2023/11/19 00:21:50;;;;;;;2.20;1.90;;;13.00;99.90;;;;;;5075310;28;20439;-85
2023/11/19 00:24:17;;;;;;;2.47;1.60;;;13.10;99.90;;;;;;5079216;28;20523;-87
2023/11/19 00:26:43;;;;;;;1.50;1.40;;;13.00;99.90;;;;;;5079355;28;20786;-88
2023/11/19 00:29:13;;;;;;;2.50;1.53;;;13.10;99.90;;;;;;5076646;28;20784;-86
2023/11/19 00:31:39;;;;;;;3.70;1.03;;;13.10;99.90;;;;;;5067687;28;20447;-87
2023/11/19 00:34:06;;;;;;;1.50;1.20;;;13.10;99.90;;;;;;5076635;28;20811;-86
2023/11/19 00:36:31;;;;;;;1.67;1.30;;;13.10;99.90;;;;;;5073021;28;20567;-86
2023/11/19 00:38:57;;;;;;;1.83;1.20;;;13.10;99.90;;;;;;5082218;28;20427;-88
2023/11/19 00:41:25;;;;;;;1.73;1.00;;;13.10;99.50;;;;;;5087965;28;20757;-86
2023/11/19 00:43:51;;;;;;;2.60;1.53;;;13.10;99.60;;;;;;5074315;28;20181;-89
2023/11/19 00:46:16;;;;;;;1.60;1.30;;;13.10;99.00;;;;;;5071397;28;20971;-86
2023/11/19 00:48:42;;;;;;;1.73;1.00;;;13.20;97.70;;;;;;5065356;28;20193;-86
2023/11/19 00:51:07;;;;;;;2.43;1.30;;;13.20;96.60;;;;;;5080158;28;20298;-86
2023/11/19 00:53:36;;;;;;;5.23;1.17;;;13.20;95.00;;;;;;5070786;28;20666;-89
2023/11/19 00:56:01;;;;;;;2.10;1.20;;;13.20;94.50;;;;;;5067261;28;20230;-88
2023/11/19 00:58:27;;;;;;;3.17;0.93;;;13.20;92.80;;;;;;5071379;28;20827;-88
2023/11/19 01:00:52;;;;;;;2.20;1.03;;;13.20;92.90;;;;;;5065532;28;20659;-87
2023/11/19 01:03:18;;;;;;;1.20;1.00;;;13.20;92.80;;;;;;5060451;28;20675;-87
2023/11/19 01:05:44;;;;;;;1.33;1.10;;;13.20;93.00;;;;;;5071200;28;20201;-87
2023/11/19 01:08:10;;;;;;;2.27;1.20;;;13.30;93.10;;;;;;5068991;28;20184;-88
2023/11/19 01:10:37;;;;;;;1.27;0.90;;;13.20;94.20;;;;;;5070538;28;20463;-88
2023/11/19 01:13:05;;;;;;;2.03;1.17;;;13.30;96.00;;;;;;5069278;28;20206;-88
2023/11/19 01:15:31;;;;;;;2.77;1.40;;;13.30;95.80;;;;;;5074731;28;20510;-87
2023/11/19 01:17:57;;;;;;;2.10;1.60;;;13.30;97.00;;;;;;5080645;28;20422;-87
2023/11/19 01:20:22;;;;;;;2.80;1.57;;;13.30;97.50;;;;;;5067719;28;20439;-88
2023/11/19 01:22:48;;;;;;;2.10;1.60;;;13.30;98.20;;;;;;5075067;28;20182;-87
2023/11/19 01:25:14;;;;;;;3.10;1.67;;;13.30;98.90;;;;;;5073601;28;20768;-88
2023/11/19 01:27:39;;;;;;;5.00;3.30;;;13.30;98.60;;;;;;5070252;28;20515;-88
2023/11/19 01:30:09;;;;;;;5.70;2.07;;;13.30;98.50;;;;;;5075120;28;20209;-88
2023/11/19 01:32:36;;;;;;;2.03;1.53;;;13.30;97.70;;;;;;5069210;28;20231;-88
2023/11/19 01:35:02;;;;;;;3.13;1.77;;;13.40;97.90;;;;;;5072967;28;20450;-87
2023/11/19 01:37:28;;;;;;;5.47;2.60;;;13.40;97.10;;;;;;5067237;28;20436;-87
2023/11/19 01:39:53;;;;;;;7.00;2.53;;;13.40;94.80;;;;;;5068423;28;20443;-88
2023/11/19 01:42:18;;;;;;;6.97;2.67;;;13.40;93.50;;;;;;5071117;28;20185;-87
2023/11/19 01:44:58;;;;;;;6.13;2.30;;;13.40;93.00;;;;;;5074215;28;20189;-88
2023/11/19 01:47:24;;;;;;;2.53;2.27;;;13.50;93.10;;;;;;5066319;28;20222;-87
2023/11/19 01:49:50;;;;;;;4.23;2.77;;;13.50;92.80;;;;;;5075167;28;20451;-88
2023/11/19 01:52:16;;;;;;;8.83;2.80;;;13.50;91.90;;;;;;5070906;28;20515;-89
2023/11/19 01:54:42;;;;;;;9.63;2.30;;;13.50;91.40;;;;;;5074650;28;20478;-87
2023/11/19 01:57:09;;;;;;;6.27;3.20;;;13.60;91.70;;;;;;5066772;28;20253;-87
2023/11/19 01:59:34;;;;;;;8.37;2.77;;;13.60;90.60;;;;;;5070187;28;21069;-88
2023/11/19 02:02:00;;;;;;;9.30;2.87;;;13.60;90.30;;;;;;5070512;28;20475;-87
2023/11/19 02:04:26;;;;;;;12.80;3.17;;;13.60;87.40;;;;;;5077348;28;20654;-88
2023/11/19 02:06:56;;;;;;;8.40;3.30;;;13.60;86.60;;;;;;5072938;28;20242;-87
2023/11/19 02:09:21;;;;;;;10.43;3.30;;;13.60;81.60;;;;;;5073241;28;20211;-88
2023/11/19 02:11:51;;;;;;;5.10;3.20;;;13.60;78.60;;;;;;5074675;28;20519;-88
2023/11/19 02:14:17;;;;;;;12.40;3.60;;;13.70;78.40;;;;;;5072272;28;20543;-87
2023/11/19 02:16:43;;;;;;;8.70;3.87;;;13.70;74.70;;;;;;5072789;28;20427;-88
2023/11/19 02:19:10;;;;;;;7.20;3.40;;;13.70;72.30;;;;;;5070131;28;21135;-88
2023/11/19 02:21:36;;;;;;;5.10;3.00;;;13.70;70.40;;;;;;5071328;28;20439;-87
2023/11/19 02:24:07;;;;;;;12.50;2.90;;;13.70;68.90;;;;;;5070116;28;20488;-88
2023/11/19 02:26:44;;;;;;;13.43;3.90;;;13.70;64.00;;;;;;5072370;28;20443;-87
2023/11/19 02:29:09;;;;;;;12.43;3.20;;;13.70;59.60;;;;;;5070893;28;20443;-88
2023/11/19 02:31:35;;;;;;;10.50;3.10;;;13.70;55.90;;;;;;5069616;28;20438;-88
2023/11/19 02:34:02;;;;;;;8.77;2.93;;;13.60;56.70;;;;;;5072576;28;20204;-87
2023/11/19 02:36:28;;;;;;;10.70;3.10;;;13.60;57.30;;;;;;5070521;28;20447;-86
2023/11/19 02:38:53;;;;;;;11.07;2.90;;;13.60;56.80;;;;;;5077348;28;20435;-88
2023/11/19 02:41:19;;;;;;;6.53;2.80;;;13.60;57.70;;;;;;5068890;28;20213;-88
2023/11/19 02:43:44;;;;;;;10.50;4.07;;;13.60;54.30;;;;;;5070230;28;20231;-88
2023/11/19 02:46:10;;;;;;;11.70;3.33;;;13.60;52.40;;;;;;5070673;28;20181;-86
2023/11/19 02:48:36;;;;;;;7.30;2.97;;;13.60;48.70;;;;;;5070800;28;20212;-88
2023/11/19 02:51:09;;;;;;;11.13;2.80;;;13.60;45.60;;;;;;5068374;28;20495;-87
2023/11/19 02:53:35;;;;;;;11.70;3.33;;;13.60;44.00;;;;;;5072690;28;20205;-88
2023/11/19 02:56:11;;;;;;;9.23;2.77;;;13.60;41.80;;;;;;5078269;28;20990;-88
2023/11/19 02:58:38;;;;;;;11.33;2.70;;;13.60;43.10;;;;;;5069619;28;20474;-88
2023/11/19 03:01:12;;;;;;;11.53;2.60;;;13.60;34.90;;;;;;5070972;28;20453;-88
2023/11/19 03:03:40;;;;;;;14.70;3.30;;;13.70;28.10;;;;;;5071425;28;20466;-88
2023/11/19 03:06:06;;;;;;;13.50;3.53;;;13.70;21.40;;;;;;5069430;28;20909;-89
2023/11/19 03:08:33;;;;;;;12.53;2.80;;;13.70;14.90;;;;;;5062596;28;20537;-88
2023/11/19 03:10:59;;;;;;;12.63;3.10;;;13.70;5.10;;;;;;5069829;28;20462;-84
2023/11/19 03:13:24;;;;;;;15.47;2.80;;;13.70;1.00;;;;;;5067408;28;20467;-87
2023/11/19 03:15:51;;;;;;;7.57;2.40;;;13.70;1.00;;;;;;5069321;28;20228;-87
2023/11/19 03:18:16;;;;;;;16.83;3.10;;;13.80;1.00;;;;;;5064215;28;20186;-88
2023/11/19 03:20:42;;;;;;;17.90;4.60;;;13.80;1.00;;;;;;5073960;28;20968;-88
2023/11/19 03:23:07;;;;;;;10.47;3.87;;;13.80;1.00;;;;;;5066991;28;20185;-88
2023/11/19 03:25:34;;;;;;;19.23;4.33;;;13.80;1.00;;;;;;5071481;28;20256;-89
2023/11/19 03:28:03;;;;;;;16.87;4.83;;;13.70;1.00;;;;;;5070912;28;20201;-88
2023/11/19 03:30:29;;;;;;;15.73;3.90;;;13.70;1.00;;;;;;5069864;28;21041;-88
2023/11/19 03:32:56;;;;;;;22.23;5.80;;;13.70;1.00;;;;;;5069424;28;20515;-88
2023/11/19 03:35:25;;;;;;;15.23;3.57;;;13.70;1.00;;;;;;5068808;28;20440;-88
2023/11/19 03:37:51;;;;;;;23.93;4.30;;;13.70;1.00;;;;;;5065482;28;20450;-87
2023/11/19 03:40:18;;;;;;;15.33;4.17;;;13.70;1.00;;;;;;5067045;28;20983;-87
2023/11/19 03:42:44;;;;;;;15.70;4.60;;;13.60;1.00;;;;;;5069591;28;20515;-88
2023/11/19 03:45:10;;;;;;;19.37;3.83;;;13.60;1.00;;;;;;5067685;28;20435;-86
2023/11/19 03:47:36;;;;;;;16.30;3.37;;;13.60;1.00;;;;;;5073295;28;20453;-89
2023/11/19 03:50:02;;;;;;;13.27;4.70;;;13.60;1.00;;;;;;5069685;28;20198;-88
2023/11/19 03:52:29;;;;;;;10.53;3.47;;;13.50;1.00;;;;;;5071539;28;20211;-88
2023/11/19 03:54:58;;;;;;;12.27;3.13;;;13.50;1.00;;;;;;5072841;28;20435;-89
2023/11/19 03:57:24;;;;;;;11.23;3.10;;;13.40;1.00;;;;;;5076455;28;20481;-86
2023/11/19 03:59:49;;;;;;;20.03;3.80;;;13.30;4.00;;;;;;5076793;28;20459;-88
2023/11/19 04:02:17;;;;;;;16.93;4.00;;;13.30;7.50;;;;;;5073571;28;20925;-88
2023/11/19 04:04:43;;;;;;;16.90;4.13;;;13.20;12.40;;;;;;5073672;28;20488;-88
2023/11/19 04:07:09;;;;;;;14.43;3.30;;;13.20;15.10;;;;;;5069949;28;20921;-88
2023/11/19 04:09:34;;;;;;;10.93;3.20;;;13.20;14.30;;;;;;5068733;28;20206;-86
2023/11/19 04:12:00;;;;;;;12.67;3.53;;;13.20;11.70;;;;;;5068654;28;20443;-88
2023/11/19 04:14:26;;;;;;;20.53;4.60;;;13.20;8.90;;;;;;5062987;28;20301;-88
2023/11/19 04:16:52;;;;;;;14.63;4.17;;;13.10;6.90;;;;;;5065559;28;20431;-88
2023/11/19 04:19:18;;;;;;;11.77;3.80;;;13.10;6.20;;;;;;5070620;28;20447;-88
2023/11/19 04:21:44;;;;;;;15.77;3.63;;;13.10;5.00;;;;;;5067880;28;20194;-89
2023/11/19 04:24:15;;;;;;;21.93;4.40;;;13.10;4.30;;;;;;5067128;28;20429;-88
2023/11/19 04:26:44;;;;;;;17.00;3.67;;;13.00;2.20;;;;;;5066626;28;20272;-88
2023/11/19 04:29:12;;;;;;;21.57;4.10;;;13.00;3.00;;;;;;5058698;28;20784;-89
2023/11/19 04:31:38;;;;;;;14.23;4.10;;;13.00;2.80;;;;;;5069928;28;21114;-89
2023/11/19 04:34:03;;;;;;;21.67;4.73;;;13.00;2.40;;;;;;5072918;28;20515;-88
2023/11/19 04:36:29;;;;;;;21.73;3.90;;;13.10;1.00;;;;;;5064838;28;20186;-88
2023/11/19 04:38:55;;;;;;;17.83;3.70;;;13.10;1.00;;;;;;5072614;28;20217;-88
2023/11/19 04:41:20;;;;;;;19.07;3.90;;;13.10;1.00;;;;;;5058420;28;20887;-88
2023/11/19 04:43:46;;;;;;;19.60;4.10;;;13.20;1.00;;;;;;5062701;28;20497;-87
2023/11/19 04:46:12;;;;;;;20.27;4.90;;;13.20;1.00;;;;;;5066385;28;20230;-88
2023/11/19 04:48:37;;;;;;;14.37;3.30;;;13.20;1.00;;;;;;5078725;28;20666;-88
2023/11/19 04:51:05;;;;;;;15.60;3.87;;;13.20;1.00;;;;;;5069766;28;20215;-89
2023/11/19 04:53:30;;;;;;;14.43;3.70;;;13.20;1.00;;;;;;5071928;28;20237;-88
2023/11/19 04:55:56;;;;;;;15.90;3.70;;;13.20;1.00;;;;;;5072358;28;20458;-87
2023/11/19 04:58:21;;;;;;;11.10;2.97;;;13.20;1.00;;;;;;5071938;28;20230;-89
2023/11/19 05:00:47;;;;;;;9.83;3.30;;;13.10;1.00;;;;;;5071879;28;20212;-86
2023/11/19 05:03:12;;;;;;;20.07;3.50;;;13.10;1.00;;;;;;5070565;28;20188;-89
2023/11/19 05:05:38;;;;;;;11.33;3.40;;;13.10;1.00;;;;;;5076052;28;20182;-88
2023/11/19 05:08:03;;;;;;;15.80;3.50;;;13.10;1.00;;;;;;5065598;28;20186;-88
2023/11/19 05:10:29;;;;;;;18.73;4.67;;;13.00;1.00;;;;;;5068739;28;20213;-88
2023/11/19 05:12:56;;;;;;;14.67;3.57;;;13.00;1.00;;;;;;5069327;28;20209;-88
2023/11/19 05:15:22;;;;;;;15.77;3.87;;;12.90;1.00;;;;;;5071837;28;20181;-87
2023/11/19 05:17:47;;;;;;;15.73;4.30;;;12.90;1.00;;;;;;5068556;28;20431;-86
2023/11/19 05:20:13;;;;;;;13.20;3.20;;;12.90;1.00;;;;;;5076770;28;20215;-87
2023/11/19 05:22:40;;;;;;;15.43;3.50;;;12.80;1.00;;;;;;5087176;28;20841;-88
2023/11/19 05:25:06;;;;;;;18.20;3.80;;;12.80;1.00;;;;;;5066476;28;20666;-88
2023/11/19 05:27:32;;;;;;;14.90;3.40;;;12.80;1.00;;;;;;5072818;28;20447;-86
2023/11/19 05:29:57;;;;;;;13.07;3.97;;;12.80;1.00;;;;;;5078519;28;20201;-88
2023/11/19 05:32:23;;;;;;;16.20;3.93;;;12.80;1.00;;;;;;5070963;28;20276;-87
2023/11/19 05:34:48;;;;;;;16.27;3.67;;;12.70;1.00;;;;;;5072464;28;20219;-87
2023/11/19 05:37:14;;;;;;;22.67;3.80;;;12.70;1.00;;;;;;5075002;28;20185;-88
2023/11/19 05:39:39;;;;;;;17.63;4.03;;;12.80;1.00;;;;;;5070005;28;20209;-89
2023/11/19 05:42:05;;;;;;;21.13;4.30;;;12.80;1.00;;;;;;5066138;28;20647;-87
2023/11/19 05:44:31;;;;;;;15.37;4.50;;;12.80;1.00;;;;;;5070598;28;20181;-88
2023/11/19 05:46:56;;;;;;;19.07;4.00;;;12.70;1.00;;;;;;5068420;28;20177;-88
2023/11/19 05:49:22;;;;;;;17.07;3.80;;;12.70;1.00;;;;;;5070754;28;20655;-89
2023/11/19 05:51:47;;;;;;;16.87;4.40;;;12.70;1.00;;;;;;5069866;28;20185;-88
2023/11/19 05:54:13;;;;;;;15.83;4.23;;;12.70;1.00;;;;;;5071012;28;20212;-88
2023/11/19 05:56:39;;;;;;;13.17;3.97;;;12.60;1.00;;;;;;5064366;28;20174;-87
2023/11/19 05:59:07;;;;;;;24.50;4.90;;;12.70;1.00;;;;;;5071421;28;20184;-88
2023/11/19 06:01:36;;;;;;;19.30;4.10;;;12.70;1.00;;;;;;5074941;28;20184;-89
2023/11/19 06:04:02;;;;;;;15.87;5.00;;;12.70;1.00;;;;;;5063153;28;20427;-88
2023/11/19 06:06:28;;;;;;;19.93;4.67;;;12.70;1.00;;;;;;5068670;28;20856;-88
2023/11/19 06:08:54;;;;;;;19.30;4.07;;;12.60;1.00;;;;;;5069881;28;20189;-89
2023/11/19 06:11:20;;;;;;;16.77;3.90;;;12.60;1.00;;;;;;5067586;28;20462;-88
2023/11/19 06:13:50;;;;;;;12.67;4.37;;;12.60;1.00;;;;;;5067448;28;20467;-88
2023/11/19 06:16:15;;;;;;;19.43;5.00;;;12.60;1.00;;;;;;5062656;28;20203;-88
2023/11/19 06:18:41;;;;;;;19.87;5.33;;;12.60;1.00;;;;;;5071115;28;20439;-87
2023/11/19 06:21:07;;;;;;;11.73;3.70;;;12.50;1.00;;;;;;5069159;28;20201;-88
2023/11/19 06:23:32;;;;;;;19.07;4.70;;;12.50;1.00;;;;;;5070655;28;20203;-88
2023/11/19 06:25:58;;;;;;;19.83;4.13;;;12.50;1.00;;;;;;5060159;28;20193;-88
2023/11/19 06:28:24;;;;;;;18.30;4.30;;;12.50;1.00;;;;;;5068207;28;20185;-87
2023/11/19 06:30:50;;;;;;;27.07;5.07;;;12.50;1.00;;;;;;5069839;28;20509;-86
2023/11/19 06:33:15;;;;;;;23.20;4.47;;;12.40;1.00;;;;;;5069129;28;20839;-88
2023/11/19 06:35:41;;;;;;;17.63;3.97;;;12.40;1.00;;;;;;5070430;28;20177;-88
2023/11/19 06:38:07;;;;;;;22.93;5.30;;;12.40;1.00;;;;;;5066718;28;20255;-87
2023/11/19 06:40:35;;;;;;;23.57;5.10;;;12.40;1.00;;;;;;5069789;28;20714;-89
2023/11/19 06:43:03;;;;;;;11.30;3.97;;;12.40;1.00;;;;;;5067097;28;20181;-87
2023/11/19 06:45:29;;;;;;;24.57;4.77;;;12.40;1.00;;;;;;5067687;28;20439;-89
2023/11/19 06:47:54;;;;;;;23.37;5.27;;;12.30;1.00;;;;;;5064783;28;20432;-87
2023/11/19 06:50:20;;;;;;;28.83;5.70;;;12.30;1.00;;;;;;5057442;28;20263;-87
2023/11/19 06:52:46;;;;;;;26.33;4.80;;;12.30;1.00;;;;;;5073862;28;20209;-87
2023/11/19 06:55:11;;;;;;;19.23;4.90;;;12.30;1.00;;;;;;5072636;28;20181;-87
2023/11/19 06:57:37;;;;;;;18.70;5.30;;;12.30;1.00;;;;;;5074496;28;20808;-86
2023/11/19 07:00:05;;;;;;;27.37;4.47;;;12.30;1.00;;;;;;5071316;28;20196;-87
2023/11/19 07:02:31;;;;;;;17.10;5.27;;;12.30;1.00;;;;;;5069349;28;20235;-86
2023/11/19 07:04:57;;;;;;;20.10;4.70;;;12.30;1.00;;;;;;5080697;28;20432;-87
2023/11/19 07:07:22;;;;;;;24.23;4.60;;;12.40;1.00;;;;;;5088517;28;20184;-90
2023/11/19 07:09:48;;;;;;;15.23;4.03;;;12.50;1.00;;;;;;5064150;28;20232;-87
2023/11/19 07:12:14;;;;;;;17.70;4.07;;;12.50;1.00;;;;;;5073034;28;20743;-86
2023/11/19 07:14:40;;;;;;;21.00;4.40;;;12.60;1.00;;;;;;5076991;28;20205;-87
2023/11/19 07:17:06;;;;;;;20.07;4.23;;;12.60;1.00;;;;;;5072231;28;20431;-87
2023/11/19 07:19:31;;;;;;;16.97;4.57;;;12.60;1.00;;;;;;5074281;28;20447;-87
2023/11/19 07:21:57;;;;;;;23.83;4.50;;;12.70;1.00;;;;;;5072281;28;20427;-87
2023/11/19 07:24:23;;;;;;;16.50;3.70;;;12.70;1.00;;;;;;5073928;28;20435;-86
2023/11/19 07:26:51;;;;;;;19.37;3.70;;;12.80;1.00;;;;;;5073179;28;20459;-87
2023/11/19 07:29:17;;;;;;;24.43;6.07;;;12.90;1.00;;;;;;5072043;28;20296;-87
2023/11/19 07:31:44;;;;;;;23.20;5.10;;;13.00;99.90;;;;;;5070927;28;21048;-87
2023/11/19 07:34:10;;;;;;;17.93;4.30;;;13.10;99.90;;;;;;5074328;28;20212;-88
2023/11/19 07:36:36;;;;;;;16.07;3.90;;;13.20;99.90;;;;;;5073743;28;20518;-87
2023/11/19 07:39:02;;;;;;;23.83;5.60;;;13.30;99.90;;;;;;5071457;28;20522;-86
2023/11/19 07:41:28;;;;;;;15.97;4.20;;;13.30;6.60;;;;;;5074224;28;20204;-86
2023/11/19 07:43:54;;;;;;;19.13;5.20;;;13.50;1.00;;;;;;5064699;28;20496;-85
2023/11/19 07:46:19;;;;;;;13.80;4.13;;;13.50;1.00;;;;;;5074236;28;20798;-86
2023/11/19 07:48:46;;;;;;;19.30;4.67;;;13.70;99.90;;;;;;5073959;28;20455;-86
2023/11/19 07:51:12;;;;;;;21.47;5.20;;;14.20;9.20;;;;;;5071018;28;20251;-87
2023/11/19 07:53:39;;;;;;;18.80;4.87;;;14.50;59.90;;;;;;5071812;28;20466;-86
2023/11/19 07:56:05;;;;;;;21.53;4.13;;;15.00;99.90;;;;;;5071298;28;20431;-87
2023/11/19 07:58:31;;;;;;;21.20;3.87;;;15.30;1.00;;;;;;5074013;28;20454;-88
2023/11/19 08:00:56;;;;;;;19.23;4.50;;;15.40;1.00;;;;;;5065289;28;20229;-87
2023/11/19 08:03:22;;;;;;;20.13;3.97;;;15.50;99.90;;;;;;5062407;28;20651;-87
2023/11/19 08:05:48;;;;;;;19.63;3.90;;;15.50;99.90;;;;;;5065917;28;20192;-88
2023/11/19 08:08:13;;;;;;;17.60;3.90;;;15.90;76.00;;;;;;5069975;28;20177;-87
2023/11/19 08:10:39;;;;;;;15.30;3.77;;;16.40;1.00;;;;;;5071820;28;20605;-86
2023/11/19 08:13:05;;;;;;;22.63;4.33;;;17.10;99.90;;;;;;5072072;28;20208;-87
2023/11/19 08:15:31;;;;;;;19.10;6.17;;;17.80;1.00;;;;;;5074304;28;20435;-86
2023/11/19 08:17:56;;;;;;;22.70;5.03;;;18.50;1.00;;;;;;5069842;28;20858;-87
2023/11/19 08:20:23;;;;;;;21.10;4.60;;;19.10;1.00;;;;;;5067067;28;20208;-86
2023/11/19 08:22:49;;;;;;;17.13;4.33;;;19.40;1.00;;;;;;5072162;28;20174;-87
2023/11/19 08:25:14;;;;;;;16.67;4.33;;;19.80;1.00;;;;;;5070406;28;20469;-86
2023/11/19 08:27:40;;;;;;;20.07;4.50;;;20.20;1.00;;;;;;5071382;28;20181;-86
2023/11/19 08:30:06;;;;;;;18.80;5.33;;;20.50;1.00;;;;;;5065349;28;20251;-86
2023/11/19 08:32:32;;;;;;;19.90;5.17;;;20.70;1.00;;;;;;5066383;28;20180;-86
2023/11/19 08:34:58;;;;;;;19.63;5.60;;;21.00;1.00;;;;;;5077156;28;20427;-86
2023/11/19 08:37:23;;;;;;;19.70;5.50;;;21.40;99.90;;;;;;5076779;28;20439;-86
2023/11/19 08:39:50;;;;;;;21.03;4.83;;;21.40;99.90;;;;;;5071252;28;20301;-87
2023/11/19 08:42:16;;;;;;;17.00;4.40;;;21.70;99.90;;;;;;5068261;28;20243;-86
2023/11/19 08:44:43;;;;;;;22.47;4.10;;;21.80;99.90;;;;;;5068792;28;20468;-87
2023/11/19 08:47:09;;;;;;;14.30;4.63;;;22.00;99.90;;;;;;5071634;28;20177;-88
2023/11/19 08:49:35;;;;;;;22.83;5.27;;;22.30;99.90;;;;;;5075246;28;20467;-87
2023/11/19 08:52:01;;;;;;;17.53;4.60;;;22.40;99.90;;;;;;5071907;28;20807;-86
2023/11/19 08:54:26;;;;;;;17.10;4.03;;;22.40;99.90;;;;;;5070020;28;20192;-86
2023/11/19 08:56:52;;;;;;;19.33;4.13;;;22.50;99.90;;;;;;5067993;28;20350;-87
2023/11/19 08:59:18;;;;;;;22.37;4.93;;;22.80;99.90;;;;;;5068981;28;20717;-86
2023/11/19 09:01:44;;;;;;;19.33;5.00;;;22.80;99.90;;;;;;5071387;28;20174;-86
2023/11/19 09:04:10;;;;;;;18.20;4.90;;;22.90;99.90;;;;;;5075040;28;20458;-86
2023/11/19 09:06:36;;;;;;;19.73;4.83;;;22.80;99.90;;;;;;5060079;28;20182;-86
2023/11/19 09:09:02;;;;;;;16.40;4.13;;;22.20;99.90;;;;;;5071773;28;20439;-86
2023/11/19 09:11:29;;;;;;;18.03;5.23;;;21.70;99.90;;;;;;5069984;28;20180;-86
2023/11/19 09:13:54;;;;;;;19.37;5.20;;;21.20;99.90;;;;;;5067559;28;20913;-88
2023/11/19 09:16:20;;;;;;;14.80;4.73;;;20.70;99.90;;;;;;5071514;28;20458;-86
2023/11/19 09:18:46;;;;;;;31.43;6.30;;;20.30;99.90;;;;;;5067743;28;20196;-86
2023/11/19 09:21:12;;;;;;;23.00;4.70;;;19.90;99.90;;;;;;5083100;28;20747;-86
2023/11/19 09:23:39;;;;;;;21.77;4.97;;;19.60;99.90;;;;;;5069295;28;20288;-86
2023/11/19 09:26:05;;;;;;;22.20;5.20;;;19.40;99.90;;;;;;5068517;28;20420;-86
2023/11/19 09:28:31;;;;;;;12.97;3.43;;;19.20;99.90;;;;;;5068589;28;20450;-88
2023/11/19 09:30:56;;;;;;;27.30;5.80;;;18.90;99.90;;;;;;5064813;28;20944;-86
2023/11/19 09:33:26;;;;;;;21.13;5.63;;;18.60;99.90;;;;;;5068020;28;20181;-86
2023/11/19 09:35:51;;;;;;;31.77;5.00;;;18.40;99.90;;;;;;5070614;28;20693;-88
2023/11/19 09:38:17;;;;;;;23.53;4.93;;;18.00;99.90;;;;;;5070542;28;20427;-85
2023/11/19 09:40:43;;;;;;;26.37;5.10;;;17.90;99.90;;;;;;5066017;28;20228;-86
2023/11/19 09:43:09;;;;;;;22.17;5.17;;;17.60;99.90;;;;;;5068235;28;20333;-86
2023/11/19 09:45:51;;;;;;;24.13;5.30;;;17.40;1.00;;;;;;5069871;28;20552;-86
2023/11/19 09:48:19;;;;;;;35.23;5.90;;;17.40;1.00;;;;;;5070639;28;20523;-88
2023/11/19 09:50:49;;;;;;;26.87;5.43;;;17.20;1.00;;;;;;5071151;28;20447;-86
2023/11/19 09:53:20;;;;;;;32.43;5.23;;;17.10;1.00;;;;;;5068316;28;20866;-89
2023/11/19 09:55:48;;;;;;;25.20;6.40;;;17.10;1.00;;;;;;5067534;28;20443;-86
2023/11/19 09:58:15;;;;;;;25.97;5.53;;;17.00;1.00;;;;;;5071430;28;20440;-86
2023/11/19 10:00:41;;;;;;;14.20;3.63;;;17.00;1.00;;;;;;5066563;28;20581;-86
2023/11/19 10:03:09;;;;;;;20.90;5.07;;;17.00;1.00;;;;;;5072313;28;20555;-85
2023/11/19 10:05:35;;;;;;;19.53;4.67;;;16.90;1.00;;;;;;5071491;28;20193;-88
2023/11/19 10:08:02;;;;;;;23.13;4.63;;;16.80;1.00;;;;;;5070446;28;20957;-85
2023/11/19 10:10:28;;;;;;;18.20;5.20;;;16.80;1.00;;;;;;5070262;28;20197;-88
2023/11/19 10:12:55;;;;;;;17.03;5.20;;;16.90;1.00;;;;;;5070515;28;20465;-87
2023/11/19 10:15:22;;;;;;;19.43;5.23;;;16.80;1.00;;;;;;5071552;28;20189;-85
2023/11/19 10:17:48;;;;;;;25.73;4.87;;;16.70;1.00;;;;;;5070575;28;20443;-87
2023/11/19 10:20:14;;;;;;;19.60;3.90;;;16.60;1.00;;;;;;5070293;28;20455;-87
2023/11/19 10:22:39;;;;;;;25.93;4.53;;;16.60;1.00;;;;;;5071405;28;21183;-86
2023/11/19 10:25:26;;;;;;;24.37;4.90;;;16.70;1.00;;;;;;5075753;28;20523;-89
2023/11/19 10:27:52;;;;;;;14.20;3.70;;;16.80;1.00;;;;;;5064649;28;20197;-89
2023/11/19 10:30:26;;;;;;;17.10;4.83;;;16.70;1.00;;;;;;5071635;28;20451;-90
2023/11/19 10:33:14;;;;;;;19.40;3.93;;;16.70;1.00;;;;;;5070433;28;20462;-90
2023/11/19 10:35:54;;;;;;;16.17;5.03;;;16.80;1.00;;;;;;5064983;28;20499;-88
2023/11/19 10:38:21;;;;;;;14.03;4.40;;;16.60;1.00;;;;;;5065038;28;20443;-87
2023/11/19 10:40:48;;;;;;;18.33;4.30;;;16.70;1.00;;;;;;5061334;28;20478;-90
2023/11/19 10:43:13;;;;;;;22.30;4.43;;;16.80;1.00;;;;;;5070727;28;20459;-91
2023/11/19 10:45:40;;;;;;;18.37;4.90;;;16.70;1.00;;;;;;5060982;28;20949;-91
2023/11/19 10:48:06;;;;;;;15.03;4.20;;;16.40;1.00;;;;;;5068146;28;20879;-90
2023/11/19 10:50:39;;;;;;;18.07;3.87;;;16.30;1.00;;;;;;5068146;28;20979;-91
2023/11/19 10:53:06;;;;;;;15.63;3.83;;;16.50;5.90;;;;;;5069520;28;20442;-90
2023/11/19 10:55:40;;;;;;;18.70;4.07;;;16.80;1.00;;;;;;5067186;28;20436;-89
2023/11/19 10:58:07;;;;;;;19.93;4.53;;;16.80;1.00;;;;;;5063606;28;20439;-91
2023/11/19 11:00:55;;;;;;;21.30;4.57;;;17.00;1.00;;;;;;5055015;28;20463;-90
2023/11/19 11:03:27;;;;;;;18.73;4.83;;;17.90;1.00;;;;;;5066566;28;20911;-88
2023/11/19 11:05:53;;;;;;;13.40;3.80;;;18.80;1.00;;;;;;5054051;28;20542;-91
2023/11/19 11:08:20;;;;;;;16.93;4.30;;;19.60;99.90;;;;;;5067645;28;20431;-89
2023/11/19 11:10:50;;;;;;;14.47;4.30;;;20.30;99.90;;;;;;5063907;28;20446;-90
2023/11/19 11:13:18;;;;;;;12.03;3.50;;;21.10;99.90;;;;;;5067464;28;20443;-90
2023/11/19 11:15:46;;;;;;;15.50;3.50;;;21.60;99.90;;;;;;5066076;28;20445;-90
2023/11/19 11:18:12;;;;;;;18.37;3.77;;;22.10;99.90;;;;;;5069367;28;20438;-90
2023/11/19 11:20:38;;;;;;;9.63;3.97;;;22.30;99.90;;;;;;5069985;28;20451;-90
2023/11/19 11:23:41;;;;;;;16.97;3.63;;;22.10;99.90;;;;;;5066137;28;20490;-89
2023/11/19 11:26:21;;;;;;;10.13;3.60;;;21.30;99.90;;;;;;5067779;28;20431;-90
2023/11/19 11:29:25;;;;;;;16.00;4.10;;;21.10;99.90;;;;;;5069289;28;20435;-91
2023/11/19 11:32:00;;;;;;;12.07;3.80;;;21.60;99.90;;;;;;5061975;28;20800;-89
2023/11/19 11:35:02;;;;;;;14.30;4.10;;;22.00;99.90;;;;;;5072712;28;20428;-90
2023/11/19 11:37:34;;;;;;;15.07;3.00;;;21.20;99.90;;;;;;5067588;28;20457;-90
2023/11/19 11:40:11;;;;;;;16.07;3.77;;;20.60;99.90;;;;;;5068696;28;20490;-90
2023/11/19 11:42:38;;;;;;;16.13;4.20;;;20.30;99.90;;;;;;5066305;28;20814;-89
2023/11/19 11:45:08;;;;;;;13.93;3.77;;;20.30;99.90;;;;;;5074198;28;20431;-90
2023/11/19 11:47:42;;;;;;;12.23;4.67;;;20.70;99.90;;;;;;5067808;28;20427;-88
2023/11/19 11:50:09;;;;;;;14.03;4.63;;;20.10;99.90;;;;;;5069930;28;20450;-89
2023/11/19 11:52:57;;;;;;;15.00;3.50;;;19.50;99.90;;;;;;5065778;28;20427;-90
2023/11/19 11:55:27;;;;;;;15.40;5.17;;;19.70;99.90;;;;;;5071943;28;20439;-88
2023/11/19 11:57:54;;;;;;;17.53;4.40;;;19.90;99.90;;;;;;5073841;28;20810;-88
2023/11/19 12:00:29;;;;;;;20.03;3.37;;;19.80;99.90;;;;;;5072843;28;20542;-90
2023/11/19 12:03:02;;;;;;;14.93;3.43;;;19.40;99.90;;;;;;5067505;28;20835;-91
2023/11/19 12:05:29;;;;;;;15.67;4.27;;;19.40;99.90;;;;;;5076974;28;20438;-88
2023/11/19 12:07:57;;;;;;;23.73;3.60;;;19.90;99.90;;;;;;5069040;28;20905;-90
2023/11/19 12:10:31;;;;;;;16.23;3.80;;;19.70;99.90;;;;;;5070774;28;20497;-89
2023/11/19 12:13:06;;;;;;;15.70;3.70;;;19.20;99.90;;;;;;5068728;28;20435;-89
2023/11/19 12:15:33;;;;;;;18.33;4.00;;;18.60;99.90;;;;;;5068802;28;20435;-91
2023/11/19 12:17:58;;;;;;;21.57;5.30;;;18.30;99.90;;;;;;5071487;28;20428;-90
2023/11/19 12:20:25;;;;;;;17.80;4.60;;;17.80;99.90;;;;;;5070100;28;20530;-88
2023/11/19 12:22:54;;;;;;;22.97;4.80;;;17.30;99.90;;;;;;5070847;28;20582;-88
2023/11/19 12:25:20;;;;;;;14.03;3.10;;;17.10;99.90;;;;;;5068228;28;20481;-90
2023/11/19 12:27:52;;;;;;;16.43;5.17;;;17.00;1.00;;;;;;5070457;28;20466;-89
2023/11/19 12:30:24;;;;;;;15.67;4.00;;;17.00;1.00;;;;;;5065325;28;20775;-90
2023/11/19 12:32:50;;;;;;;10.97;2.97;;;17.10;1.00;;;;;;5065829;28;20493;-89
2023/11/19 12:35:16;;;;;;;18.17;3.70;;;17.20;1.00;;;;;;5071255;28;20435;-90
2023/11/19 12:37:46;;;;;;;12.77;3.37;;;17.30;1.00;;;;;;5066516;28;20435;-90
2023/11/19 12:40:14;;;;;;;16.33;3.77;;;17.60;1.00;;;;;;5062443;28;20292;-89
2023/11/19 12:42:41;;;;;;;13.13;3.70;;;17.70;1.00;;;;;;5065462;28;20925;-89
2023/11/19 12:45:08;;;;;;;7.17;2.70;;;17.90;1.00;;;;;;5069615;28;20515;-90